Time;durP1;ratioP1;P1;durP2;ratioP2;P2;SDS_P1;SDS_P2;PMS_P1;PMS_P2;Temp;Humidity;BMP_temperature;BMP_pressure;BME280_temperature;BME280_humidity;BME280_pressure;Samples;Min_cycle;Max_cycle;Signal;HPM_P1;HPM_P2
2022/10/07 00:01:00;;;;;;;;;23.00;21.00;;;;;;;;5008483;27;51095;-48
2022/10/07 00:03:26;;;;;;;;;20.50;18.75;;;;;;;;5007204;28;50909;-48
2022/10/07 00:06:00;;;;;;;;;21.00;19.75;;;;;;;;4994684;27;52194;-50
2022/10/07 00:08:25;;;;;;;;;20.75;19.50;;;;;;;;4999208;27;51266;-48
2022/10/07 00:10:51;;;;;;;;;28.25;26.50;;;;;;;;4997928;28;50995;-49
2022/10/07 00:13:16;;;;;;;;;28.50;26.75;;;;;;;;5006256;28;51108;-49
2022/10/07 00:15:41;;;;;;;;;22.75;22.00;;;;;;;;5001239;27;51040;-48
2022/10/07 00:18:06;;;;;;;;;22.25;21.50;;;;;;;;5004294;28;51012;-49
2022/10/07 00:20:38;;;;;;;;;18.50;17.75;;;;;;;;4999031;28;50875;-47
2022/10/07 00:23:04;;;;;;;;;20.75;19.75;;;;;;;;5009429;28;51036;-49
2022/10/07 00:25:29;;;;;;;;;18.25;17.25;;;;;;;;4998604;27;51257;-50
2022/10/07 00:27:54;;;;;;;;;22.00;21.25;;;;;;;;5000683;28;52018;-49
2022/10/07 00:30:20;;;;;;;;;18.75;17.00;;;;;;;;4995160;28;51348;-49
2022/10/07 00:32:45;;;;;;;;;23.75;21.00;;;;;;;;5006805;28;50986;-49
2022/10/07 00:35:10;;;;;;;;;21.50;18.75;;;;;;;;5002511;28;51183;-47
2022/10/07 00:37:41;;;;;;;;;22.25;22.00;;;;;;;;4996346;27;51178;-49
2022/10/07 00:40:06;;;;;;;;;18.75;18.50;;;;;;;;5007290;28;51114;-47
2022/10/07 00:42:32;;;;;;;;;23.75;20.75;;;;;;;;5009015;27;51328;-48
2022/10/07 00:44:57;;;;;;;;;22.25;19.50;;;;;;;;5048051;27;51315;-50
2022/10/07 00:47:33;;;;;;;;;23.75;23.25;;;;;;;;5002966;27;51227;-48
2022/10/07 00:50:01;;;;;;;;;21.25;20.75;;;;;;;;5004721;28;51104;-49
2022/10/07 00:52:29;;;;;;;;;21.25;20.25;;;;;;;;4996267;28;51234;-48
2022/10/07 00:54:55;;;;;;;;;22.50;20.75;;;;;;;;4999383;28;51497;-48
2022/10/07 00:57:22;;;;;;;;;20.00;19.75;;;;;;;;4999149;28;51825;-48
2022/10/07 00:59:47;;;;;;;;;20.75;20.00;;;;;;;;5012926;28;51148;-48
2022/10/07 01:02:12;;;;;;;;;25.25;23.25;;;;;;;;5075123;27;51022;-48
2022/10/07 01:04:38;;;;;;;;;25.00;24.50;;;;;;;;5002147;28;51020;-48
2022/10/07 01:07:03;;;;;;;;;18.50;17.25;;;;;;;;5002036;28;51037;-47
2022/10/07 01:09:28;;;;;;;;;21.00;19.25;;;;;;;;4995035;28;51134;-48
2022/10/07 01:11:59;;;;;;;;;20.50;17.75;;;;;;;;4999454;28;51395;-47
2022/10/07 01:14:51;;;;;;;;;21.50;21.25;;;;;;;;4998910;28;51176;-47
2022/10/07 01:17:19;;;;;;;;;19.25;18.25;;;;;;;;5006621;27;53124;-49
2022/10/07 01:19:57;;;;;;;;;23.50;22.75;;;;;;;;5001179;27;51147;-48
2022/10/07 01:22:25;;;;;;;;;18.50;18.25;;;;;;;;5009919;28;51077;-49
2022/10/07 01:25:11;;;;;;;;;20.00;19.25;;;;;;;;5006367;27;50920;-51
2022/10/07 01:27:38;;;;;;;;;20.75;18.50;;;;;;;;5002777;27;52992;-49
2022/10/07 01:30:05;;;;;;;;;23.00;20.00;;;;;;;;5001456;27;51147;-48
2022/10/07 01:32:39;;;;;;;;;21.00;19.25;;;;;;;;5008894;28;50973;-51
2022/10/07 01:35:07;;;;;;;;;22.00;20.00;;;;;;;;5006824;28;51089;-48
2022/10/07 01:37:37;;;;;;;;;22.25;21.25;;;;;;;;5006897;28;51715;-48
2022/10/07 01:40:08;;;;;;;;;22.50;21.00;;;;;;;;5007725;28;51237;-49
2022/10/07 01:42:34;;;;;;;;;21.50;21.00;;;;;;;;4999411;28;51103;-48
2022/10/07 01:44:59;;;;;;;;;23.00;20.25;;;;;;;;5005126;28;51421;-48
2022/10/07 01:47:25;;;;;;;;;20.00;19.50;;;;;;;;5003628;27;51590;-48
2022/10/07 01:49:50;;;;;;;;;16.25;15.50;;;;;;;;5007013;28;51069;-50
2022/10/07 01:52:23;;;;;;;;;19.50;19.00;;;;;;;;5007147;27;51302;-48
2022/10/07 01:54:48;;;;;;;;;24.75;23.00;;;;;;;;4994556;27;51020;-48
2022/10/07 01:57:13;;;;;;;;;24.75;19.25;;;;;;;;5002566;27;51703;-46
2022/10/07 01:59:44;;;;;;;;;20.75;20.00;;;;;;;;5005123;28;51114;-49
2022/10/07 02:02:09;;;;;;;;;21.75;20.75;;;;;;;;5029726;27;51255;-48
2022/10/07 02:04:34;;;;;;;;;23.25;22.50;;;;;;;;4998084;28;51021;-50
2022/10/07 02:07:18;;;;;;;;;20.50;20.50;;;;;;;;5006037;28;51374;-50
2022/10/07 02:09:47;;;;;;;;;20.00;20.00;;;;;;;;4999711;28;51147;-48
2022/10/07 02:12:27;;;;;;;;;16.50;16.00;;;;;;;;4997993;28;51007;-47
2022/10/07 02:14:55;;;;;;;;;24.50;22.25;;;;;;;;5016733;27;51135;-49
2022/10/07 02:17:23;;;;;;;;;24.50;21.25;;;;;;;;5048589;27;51344;-49
2022/10/07 02:19:52;;;;;;;;;21.75;21.25;;;;;;;;5009626;28;51119;-48
2022/10/07 02:22:17;;;;;;;;;21.25;20.00;;;;;;;;5006406;28;51248;-47
2022/10/07 02:24:46;;;;;;;;;22.75;21.25;;;;;;;;5003229;27;51246;-49
2022/10/07 02:27:13;;;;;;;;;21.00;21.00;;;;;;;;5008163;28;51085;-49
2022/10/07 02:29:40;;;;;;;;;21.25;19.75;;;;;;;;5009261;27;51114;-50
2022/10/07 02:32:08;;;;;;;;;24.25;22.75;;;;;;;;5004217;28;52737;-49
2022/10/07 02:34:35;;;;;;;;;22.00;20.25;;;;;;;;5000393;27;51393;-48
2022/10/07 02:37:03;;;;;;;;;22.50;20.75;;;;;;;;4991130;28;51159;-49
2022/10/07 02:39:28;;;;;;;;;21.50;20.50;;;;;;;;5005201;28;50948;-49
2022/10/07 02:42:03;;;;;;;;;21.00;21.00;;;;;;;;4994482;28;51210;-51
2022/10/07 02:44:28;;;;;;;;;21.00;21.00;;;;;;;;5007972;28;51116;-48
2022/10/07 02:47:10;;;;;;;;;23.50;22.00;;;;;;;;4999734;28;51667;-49
2022/10/07 02:49:38;;;;;;;;;23.00;21.50;;;;;;;;4999633;28;51118;-47
2022/10/07 02:52:08;;;;;;;;;27.00;24.00;;;;;;;;5008436;28;51139;-48
2022/10/07 02:54:45;;;;;;;;;23.75;22.25;;;;;;;;5005327;28;51046;-48
2022/10/07 02:57:13;;;;;;;;;20.50;20.50;;;;;;;;5007587;28;52486;-49
2022/10/07 02:59:39;;;;;;;;;23.00;22.25;;;;;;;;5010432;28;51067;-50
2022/10/07 03:02:07;;;;;;;;;27.50;26.00;;;;;;;;5015280;27;51092;-51
2022/10/07 03:04:33;;;;;;;;;23.50;22.00;;;;;;;;5003007;27;51264;-47
2022/10/07 03:06:59;;;;;;;;;22.50;22.25;;;;;;;;5000067;28;51614;-49
2022/10/07 03:09:25;;;;;;;;;20.75;19.00;;;;;;;;5008417;28;50990;-49
2022/10/07 03:11:50;;;;;;;;;26.50;23.25;;;;;;;;5010067;27;51113;-50
2022/10/07 03:14:16;;;;;;;;;20.25;18.00;;;;;;;;5009722;27;51059;-48
2022/10/07 03:16:41;;;;;;;;;25.00;23.00;;;;;;;;5043643;27;51416;-47
2022/10/07 03:19:06;;;;;;;;;24.00;23.25;;;;;;;;5007076;28;51443;-49
2022/10/07 03:21:32;;;;;;;;;24.00;23.25;;;;;;;;5005071;28;51343;-50
2022/10/07 03:24:03;;;;;;;;;20.25;19.50;;;;;;;;5010014;28;51292;-48
2022/10/07 03:26:29;;;;;;;;;25.00;23.25;;;;;;;;5006805;27;51720;-49
2022/10/07 03:28:55;;;;;;;;;21.50;21.50;;;;;;;;5006893;28;51156;-49
2022/10/07 03:31:20;;;;;;;;;21.00;20.50;;;;;;;;5004110;27;51403;-49
2022/10/07 03:33:45;;;;;;;;;24.75;23.50;;;;;;;;4994330;27;51268;-48
2022/10/07 03:36:11;;;;;;;;;24.50;22.25;;;;;;;;4995380;27;51894;-47
2022/10/07 03:38:36;;;;;;;;;27.75;22.25;;;;;;;;4993589;28;51021;-47
2022/10/07 03:41:03;;;;;;;;;25.00;21.50;;;;;;;;4996731;27;50993;-48
2022/10/07 03:43:28;;;;;;;;;16.25;16.25;;;;;;;;5002113;28;51015;-48
2022/10/07 03:45:54;;;;;;;;;26.25;22.75;;;;;;;;4997707;28;51209;-49
2022/10/07 03:48:20;;;;;;;;;29.50;27.75;;;;;;;;5009073;28;51043;-50
2022/10/07 03:50:51;;;;;;;;;22.25;21.00;;;;;;;;5006018;28;51406;-49
2022/10/07 03:53:17;;;;;;;;;23.00;22.25;;;;;;;;5009477;28;51198;-50
2022/10/07 03:55:43;;;;;;;;;23.25;21.75;;;;;;;;4999759;27;51772;-48
2022/10/07 03:58:08;;;;;;;;;21.25;20.25;;;;;;;;5003976;28;51100;-49
2022/10/07 04:00:33;;;;;;;;;22.50;20.75;;;;;;;;5002283;27;51011;-47
2022/10/07 04:02:59;;;;;;;;;21.75;20.75;;;;;;;;5008914;27;50993;-47
2022/10/07 04:05:24;;;;;;;;;21.75;20.25;;;;;;;;5004007;27;51096;-50
2022/10/07 04:07:49;;;;;;;;;25.50;21.25;;;;;;;;5002994;28;50941;-47
2022/10/07 04:10:15;;;;;;;;;22.75;22.00;;;;;;;;5004300;27;51422;-47
2022/10/07 04:12:41;;;;;;;;;18.75;18.00;;;;;;;;4995680;28;51190;-49
2022/10/07 04:15:07;;;;;;;;;19.00;18.00;;;;;;;;5003329;27;50946;-51
2022/10/07 04:17:33;;;;;;;;;19.50;17.50;;;;;;;;5006255;28;50998;-48
2022/10/07 04:19:58;;;;;;;;;19.75;19.75;;;;;;;;4991117;28;50996;-50
2022/10/07 04:22:23;;;;;;;;;18.75;18.25;;;;;;;;5000098;28;51106;-50
2022/10/07 04:25:34;;;;;;;;;19.75;19.75;;;;;;;;5006159;28;51728;-51
2022/10/07 04:27:37;;;;;;;;;17.75;17.75;;;;;;;;5012927;28;51147;-48
2022/10/07 04:30:03;;;;;;;;;21.75;20.75;;;;;;;;5001880;27;51927;-46
2022/10/07 04:32:29;;;;;;;;;20.50;20.00;;;;;;;;5008194;27;51284;-48
2022/10/07 04:34:54;;;;;;;;;17.50;17.00;;;;;;;;4997287;28;51135;-48
2022/10/07 04:37:20;;;;;;;;;17.75;15.00;;;;;;;;5003887;27;51086;-48
2022/10/07 04:39:45;;;;;;;;;19.75;19.25;;;;;;;;5001058;28;50966;-48
2022/10/07 04:43:17;;;;;;;;;19.75;17.50;;;;;;;;4997772;27;50981;-49
2022/10/07 04:44:55;;;;;;;;;19.50;18.75;;;;;;;;4995101;27;51700;-48
2022/10/07 04:47:20;;;;;;;;;20.50;19.75;;;;;;;;4999800;28;50881;-48
2022/10/07 04:49:46;;;;;;;;;21.50;20.25;;;;;;;;5003767;28;51051;-49
2022/10/07 04:52:11;;;;;;;;;18.50;17.25;;;;;;;;5013182;28;51186;-48
2022/10/07 04:54:38;;;;;;;;;19.25;16.25;;;;;;;;5002243;27;52440;-48
2022/10/07 04:57:03;;;;;;;;;21.75;21.00;;;;;;;;5007821;28;51140;-48
2022/10/07 04:59:29;;;;;;;;;18.00;18.00;;;;;;;;5011574;28;51015;-47
2022/10/07 05:01:54;;;;;;;;;18.25;18.00;;;;;;;;5020821;27;51019;-47
2022/10/07 05:04:19;;;;;;;;;18.25;17.50;;;;;;;;4999634;28;51450;-48
2022/10/07 05:06:44;;;;;;;;;19.50;19.25;;;;;;;;5019089;27;51071;-49
2022/10/07 05:09:10;;;;;;;;;18.50;17.00;;;;;;;;5005151;27;51156;-48
2022/10/07 05:11:36;;;;;;;;;24.50;22.00;;;;;;;;5006522;28;51132;-48
2022/10/07 05:14:01;;;;;;;;;21.00;19.50;;;;;;;;5009240;28;51929;-48
2022/10/07 05:16:26;;;;;;;;;2.75;1.00;;;;;;;;5010582;27;51228;-49
2022/10/07 05:18:52;;;;;;;;;21.75;20.25;;;;;;;;5000403;28;51254;-48
2022/10/07 05:21:17;;;;;;;;;18.25;17.00;;;;;;;;5019482;27;51448;-49
2022/10/07 05:23:42;;;;;;;;;20.00;19.25;;;;;;;;5013924;27;51673;-46
2022/10/07 05:26:09;;;;;;;;;21.75;20.00;;;;;;;;5000694;27;51365;-49
2022/10/07 05:28:34;;;;;;;;;21.00;17.75;;;;;;;;5030567;27;51168;-48
2022/10/07 05:31:01;;;;;;;;;20.75;20.00;;;;;;;;5023920;27;50862;-49
2022/10/07 05:33:26;;;;;;;;;21.75;21.00;;;;;;;;4999231;28;52206;-49
2022/10/07 05:35:51;;;;;;;;;24.50;22.25;;;;;;;;4999333;28;51711;-48
2022/10/07 05:38:16;;;;;;;;;22.75;21.50;;;;;;;;4998837;28;51106;-50
2022/10/07 05:40:41;;;;;;;;;20.75;20.00;;;;;;;;5001644;27;51241;-49
2022/10/07 05:43:09;;;;;;;;;22.00;19.50;;;;;;;;5018614;27;52687;-49
2022/10/07 05:45:34;;;;;;;;;23.25;20.75;;;;;;;;5003716;27;52112;-48
2022/10/07 05:48:00;;;;;;;;;23.00;21.25;;;;;;;;5007254;28;51090;-50
2022/10/07 05:50:25;;;;;;;;;17.00;17.00;;;;;;;;5004428;28;51024;-49
2022/10/07 05:52:50;;;;;;;;;25.50;24.00;;;;;;;;5004911;28;51209;-48
2022/10/07 05:55:17;;;;;;;;;21.25;20.00;;;;;;;;5003933;28;51182;-47
2022/10/07 05:57:42;;;;;;;;;26.00;21.50;;;;;;;;5006192;28;51477;-49
2022/10/07 06:00:08;;;;;;;;;22.00;19.75;;;;;;;;5005613;27;51391;-49
2022/10/07 06:02:33;;;;;;;;;23.75;22.50;;;;;;;;5008222;27;51934;-48
2022/10/07 06:04:58;;;;;;;;;18.50;17.50;;;;;;;;5003764;28;52205;-49
2022/10/07 06:07:24;;;;;;;;;18.75;18.00;;;;;;;;5006723;28;50930;-48
2022/10/07 06:15:17;;;;;;;;;17.50;17.25;;;;;;;;5006023;28;51142;-50
2022/10/07 06:17:45;;;;;;;;;18.00;16.75;;;;;;;;5008364;28;51423;-49
2022/10/07 06:20:12;;;;;;;;;19.75;18.75;;;;;;;;5006854;28;51251;-49
2022/10/07 06:22:37;;;;;;;;;20.75;19.25;;;;;;;;5010518;28;52022;-49
2022/10/07 06:25:02;;;;;;;;;11.75;10.25;;;;;;;;4997515;27;52791;-47
2022/10/07 06:27:28;;;;;;;;;17.00;17.00;;;;;;;;4997476;28;51002;-47
2022/10/07 06:29:53;;;;;;;;;20.00;18.50;;;;;;;;5003180;28;51237;-47
2022/10/07 06:32:18;;;;;;;;;19.75;18.75;;;;;;;;4998788;27;51956;-48
2022/10/07 06:34:44;;;;;;;;;21.25;20.00;;;;;;;;5007866;27;50923;-49
2022/10/07 06:37:09;;;;;;;;;19.75;17.75;;;;;;;;5011252;28;51183;-46
2022/10/07 06:39:34;;;;;;;;;21.50;20.50;;;;;;;;5008663;27;51409;-49
2022/10/07 06:42:00;;;;;;;;;19.25;18.00;;;;;;;;5002234;27;52254;-55
2022/10/07 06:44:27;;;;;;;;;16.50;15.25;;;;;;;;5001206;28;51160;-47
2022/10/07 06:46:52;;;;;;;;;17.75;16.75;;;;;;;;5008754;28;51068;-48
2022/10/07 06:49:17;;;;;;;;;23.75;20.75;;;;;;;;5004236;28;51227;-50
2022/10/07 06:51:42;;;;;;;;;19.50;19.25;;;;;;;;4997350;28;52157;-48
2022/10/07 06:54:07;;;;;;;;;20.75;18.25;;;;;;;;4996777;28;51255;-49
2022/10/07 06:56:33;;;;;;;;;27.00;22.75;;;;;;;;4996260;28;51200;-47
2022/10/07 06:58:58;;;;;;;;;21.75;21.00;;;;;;;;5001189;27;51169;-51
2022/10/07 07:01:23;;;;;;;;;24.25;22.50;;;;;;;;5007502;27;52255;-49
2022/10/07 07:03:49;;;;;;;;;21.00;19.75;;;;;;;;5003765;28;51451;-49
2022/10/07 07:06:14;;;;;;;;;21.25;20.50;;;;;;;;5019797;27;51758;-47
2022/10/07 07:08:40;;;;;;;;;22.75;21.50;;;;;;;;5003321;28;50948;-48
2022/10/07 07:11:34;;;;;;;;;23.50;22.50;;;;;;;;5023251;27;51149;-47
2022/10/07 07:13:52;;;;;;;;;19.75;18.25;;;;;;;;4999968;28;51109;-48
2022/10/07 07:16:17;;;;;;;;;18.75;18.00;;;;;;;;5011646;27;51141;-47
2022/10/07 07:18:43;;;;;;;;;20.25;17.50;;;;;;;;5002770;27;51576;-46
2022/10/07 07:21:10;;;;;;;;;19.50;18.75;;;;;;;;5000205;28;52011;-47
2022/10/07 07:23:35;;;;;;;;;23.50;21.25;;;;;;;;4998241;28;51326;-48
2022/10/07 07:26:00;;;;;;;;;23.75;23.00;;;;;;;;5006920;28;51071;-47
2022/10/07 07:28:25;;;;;;;;;18.50;18.50;;;;;;;;5005198;28;51195;-47
2022/10/07 07:30:51;;;;;;;;;29.75;28.50;;;;;;;;5006406;28;51184;-47
2022/10/07 07:33:16;;;;;;;;;22.75;21.75;;;;;;;;5005302;27;51037;-48
2022/10/07 07:35:42;;;;;;;;;20.25;18.75;;;;;;;;4992842;27;51090;-48
2022/10/07 07:38:07;;;;;;;;;17.75;17.00;;;;;;;;5001092;27;51477;-47
2022/10/07 07:40:34;;;;;;;;;23.00;20.00;;;;;;;;5007679;28;51737;-47
2022/10/07 07:43:01;;;;;;;;;20.75;19.50;;;;;;;;5007100;27;50875;-48
2022/10/07 07:45:26;;;;;;;;;20.50;20.25;;;;;;;;5008615;28;51077;-50
2022/10/07 07:47:51;;;;;;;;;17.75;17.25;;;;;;;;4994922;28;50833;-47
2022/10/07 07:50:19;;;;;;;;;15.75;15.50;;;;;;;;4999154;28;51685;-48
2022/10/07 07:52:45;;;;;;;;;16.50;15.00;;;;;;;;5004406;28;51028;-50
2022/10/07 07:55:10;;;;;;;;;17.00;16.00;;;;;;;;5004813;28;51720;-47
2022/10/07 07:57:36;;;;;;;;;20.00;19.00;;;;;;;;5003331;27;51312;-49
2022/10/07 08:00:04;;;;;;;;;19.25;18.25;;;;;;;;5002778;28;51753;-49
2022/10/07 08:02:29;;;;;;;;;23.00;21.25;;;;;;;;5063753;27;51111;-47
2022/10/07 08:04:54;;;;;;;;;14.00;13.00;;;;;;;;5005913;27;50950;-50
2022/10/07 08:07:19;;;;;;;;;13.00;12.33;;;;;;;;5007467;27;51142;-57
2022/10/07 08:09:45;;;;;;;;;14.67;14.33;;;;;;;;5006118;28;51901;-59
2022/10/07 08:12:10;;;;;;;;;14.67;14.67;;;;;;;;5007763;28;51015;-57
2022/10/07 08:14:37;;;;;;;;;15.33;15.00;;;;;;;;4997928;28;51209;-59
2022/10/07 08:17:02;;;;;;;;;0.33;0.00;;;;;;;;5043402;27;51164;-56
2022/10/07 08:19:28;;;;;;;;;21.00;19.00;;;;;;;;5006295;28;51644;-54
2022/10/07 08:21:53;;;;;;;;;21.00;15.75;;;;;;;;5003575;28;51216;-57
2022/10/07 08:24:18;;;;;;;;;14.33;13.67;;;;;;;;4992624;28;52602;-55
2022/10/07 08:26:44;;;;;;;;;14.50;13.50;;;;;;;;5034678;27;51000;-54
2022/10/07 08:29:09;;;;;;;;;12.50;12.00;;;;;;;;5004654;28;51919;-55
2022/10/07 08:31:34;;;;;;;;;13.33;13.33;;;;;;;;5007760;28;51120;-53
2022/10/07 08:34:00;;;;;;;;;12.33;11.00;;;;;;;;5019503;28;51051;-53
2022/10/07 08:36:26;;;;;;;;;13.75;12.00;;;;;;;;5008218;28;51119;-53
2022/10/07 08:38:52;;;;;;;;;14.67;14.00;;;;;;;;5013338;28;51121;-51
2022/10/07 08:41:32;;;;;;;;;15.67;14.33;;;;;;;;5007430;28;51040;-49
2022/10/07 08:43:59;;;;;;;;;12.67;12.67;;;;;;;;5016448;27;50908;-51
2022/10/07 08:46:27;;;;;;;;;13.67;13.67;;;;;;;;5004364;28;51068;-50
2022/10/07 08:48:59;;;;;;;;;13.00;12.67;;;;;;;;5007279;28;52751;-47
2022/10/07 08:51:31;;;;;;;;;15.33;14.00;;;;;;;;5007842;28;51133;-48
2022/10/07 08:54:00;;;;;;;;;15.33;15.00;;;;;;;;5010199;27;51090;-52
2022/10/07 08:56:25;;;;;;;;;18.50;14.25;;;;;;;;5008257;28;51606;-49
2022/10/07 08:58:54;;;;;;;;;19.00;18.00;;;;;;;;5006007;28;51799;-50
2022/10/07 09:01:25;;;;;;;;;20.67;20.00;;;;;;;;5015820;27;51030;-50
2022/10/07 09:04:09;;;;;;;;;15.67;15.00;;;;;;;;5008254;27;51143;-49
2022/10/07 09:06:41;;;;;;;;;14.33;14.00;;;;;;;;5018322;27;51153;-51
2022/10/07 09:09:19;;;;;;;;;16.75;16.00;;;;;;;;5001654;27;51694;-51
2022/10/07 09:11:45;;;;;;;;;15.67;14.33;;;;;;;;5002084;28;51500;-51
2022/10/07 09:14:19;;;;;;;;;16.33;15.00;;;;;;;;5006782;28;51062;-51
2022/10/07 09:16:46;;;;;;;;;17.75;16.00;;;;;;;;5047491;27;51185;-49
2022/10/07 09:19:37;;;;;;;;;16.00;15.33;;;;;;;;5006914;28;51916;-57
2022/10/07 09:22:05;;;;;;;;;17.50;16.25;;;;;;;;5008969;28;50884;-51
2022/10/07 09:24:32;;;;;;;;;16.33;15.33;;;;;;;;5004441;28;50942;-52
2022/10/07 09:26:58;;;;;;;;;17.00;14.67;;;;;;;;5006210;28;51275;-52
2022/10/07 09:29:25;;;;;;;;;16.00;15.33;;;;;;;;5001065;28;51756;-51
2022/10/07 09:31:52;;;;;;;;;16.50;15.50;;;;;;;;4999173;27;51023;-50
2022/10/07 09:34:23;;;;;;;;;13.67;12.67;;;;;;;;5000355;28;51162;-51
2022/10/07 09:37:08;;;;;;;;;16.00;16.00;;;;;;;;5011139;28;51018;-52
2022/10/07 09:39:33;;;;;;;;;15.33;15.00;;;;;;;;5010474;28;51935;-50
2022/10/07 09:41:59;;;;;;;;;15.00;13.67;;;;;;;;5000524;28;51294;-50
2022/10/07 09:44:26;;;;;;;;;17.25;16.00;;;;;;;;5010503;28;51186;-51
2022/10/07 09:46:53;;;;;;;;;13.00;12.00;;;;;;;;5011475;28;51045;-49
2022/10/07 09:49:27;;;;;;;;;14.33;13.33;;;;;;;;5009227;27;50979;-52
2022/10/07 09:52:04;;;;;;;;;13.33;11.33;;;;;;;;4998524;28;51085;-53
2022/10/07 09:54:31;;;;;;;;;15.67;13.33;;;;;;;;5017068;28;51078;-53
2022/10/07 09:56:58;;;;;;;;;18.75;15.75;;;;;;;;5002781;27;51154;-53
2022/10/07 09:59:30;;;;;;;;;17.00;15.67;;;;;;;;4999805;28;51034;-55
2022/10/07 10:02:02;;;;;;;;;11.33;10.33;;;;;;;;5005745;27;51024;-53
2022/10/07 10:04:32;;;;;;;;;12.00;11.00;;;;;;;;5010232;27;51100;-56
2022/10/07 10:07:03;;;;;;;;;12.00;10.33;;;;;;;;5011054;27;51337;-55
2022/10/07 10:09:28;;;;;;;;;8.33;8.33;;;;;;;;5009171;28;52957;-52
2022/10/07 10:12:01;;;;;;;;;7.33;7.33;;;;;;;;5010607;28;51074;-53
2022/10/07 10:14:34;;;;;;;;;8.00;7.33;;;;;;;;5010499;28;50930;-55
2022/10/07 10:16:59;;;;;;;;;9.00;8.33;;;;;;;;5021322;27;51088;-55
2022/10/07 10:19:26;;;;;;;;;10.33;9.33;;;;;;;;5009878;27;51706;-54
2022/10/07 10:21:53;;;;;;;;;11.67;9.33;;;;;;;;5009451;28;50861;-54
2022/10/07 10:26:24;;;;;;;;;12.00;11.67;;;;;;;;5010180;27;51449;-55
2022/10/07 10:27:09;;;;;;;;;4.00;4.00;;;;;;;;5010420;27;51281;-56
2022/10/07 10:29:53;;;;;;;;;11.33;10.67;;;;;;;;5010271;28;53455;-55
2022/10/07 10:32:21;;;;;;;;;4.00;3.00;;;;;;;;5010119;28;50994;-54
2022/10/07 10:34:53;;;;;;;;;9.00;6.67;;;;;;;;5008469;28;51119;-54
2022/10/07 10:37:21;;;;;;;;;4.67;4.67;;;;;;;;5010953;28;50969;-51
2022/10/07 10:39:46;;;;;;;;;2.00;1.00;;;;;;;;5010381;28;51077;-55
2022/10/07 10:42:17;;;;;;;;;2.33;2.00;;;;;;;;5009094;28;50990;-55
2022/10/07 10:45:06;;;;;;;;;4.00;3.00;;;;;;;;5010609;28;51066;-54
2022/10/07 10:47:44;;;;;;;;;4.33;3.67;;;;;;;;5001802;28;51740;-55
2022/10/07 10:50:16;;;;;;;;;1.33;1.00;;;;;;;;5002336;28;52318;-56
2022/10/07 10:53:00;;;;;;;;;15.00;14.00;;;;;;;;5016241;28;50956;-54
2022/10/07 10:55:40;;;;;;;;;17.75;17.50;;;;;;;;5013617;28;51130;-56
2022/10/07 10:58:26;;;;;;;;;6.33;6.33;;;;;;;;5008927;28;51152;-54
2022/10/07 11:01:19;;;;;;;;;5.00;4.00;;;;;;;;5026590;27;51745;-55
2022/10/07 11:04:03;;;;;;;;;6.00;5.00;;;;;;;;5002525;27;51127;-55
2022/10/07 11:06:31;;;;;;;;;3.00;2.00;;;;;;;;5004410;28;51128;-54
2022/10/07 11:08:58;;;;;;;;;3.00;3.00;;;;;;;;5001435;28;51281;-55
2022/10/07 11:11:23;;;;;;;;;3.00;3.00;;;;;;;;5006206;28;51823;-58
2022/10/07 11:13:55;;;;;;;;;2.00;2.00;;;;;;;;5009569;28;51265;-56
2022/10/07 11:16:23;;;;;;;;;1.67;1.00;;;;;;;;5016932;27;51076;-56
2022/10/07 11:18:53;;;;;;;;;1.33;1.33;;;;;;;;5005313;28;51335;-55
2022/10/07 11:21:28;;;;;;;;;2.00;1.00;;;;;;;;5009437;28;50950;-56
2022/10/07 11:24:00;;;;;;;;;2.00;2.00;;;;;;;;5009628;28;51183;-56
2022/10/07 11:26:32;;;;;;;;;3.00;2.67;;;;;;;;5004099;28;51299;-56
2022/10/07 11:29:01;;;;;;;;;11.00;10.00;;;;;;;;5007646;27;51437;-55
2022/10/07 11:31:32;;;;;;;;;2.33;2.00;;;;;;;;5008155;28;53138;-57
2022/10/07 11:34:06;;;;;;;;;16.25;14.25;;;;;;;;5007972;28;51282;-56
2022/10/07 11:36:40;;;;;;;;;5.00;4.33;;;;;;;;5006957;27;51099;-55
2022/10/07 11:39:06;;;;;;;;;2.67;1.67;;;;;;;;5009779;28;51144;-56
2022/10/07 11:41:34;;;;;;;;;3.67;3.67;;;;;;;;5009739;27;51938;-58
2022/10/07 11:44:02;;;;;;;;;4.67;4.67;;;;;;;;5009779;28;51048;-54
2022/10/07 11:46:32;;;;;;;;;3.00;1.33;;;;;;;;5009264;27;51101;-56
2022/10/07 11:48:58;;;;;;;;;4.00;3.00;;;;;;;;5003419;28;51714;-56
2022/10/07 11:51:27;;;;;;;;;2.33;2.00;;;;;;;;5002437;28;51781;-56
2022/10/07 11:53:54;;;;;;;;;4.00;3.00;;;;;;;;5012967;28;51037;-56
2022/10/07 11:56:24;;;;;;;;;3.67;3.00;;;;;;;;4995570;27;51144;-55
2022/10/07 11:59:00;;;;;;;;;3.33;3.00;;;;;;;;5007129;28;51912;-55
2022/10/07 12:01:29;;;;;;;;;14.67;14.00;;;;;;;;5045001;27;51012;-56
2022/10/07 12:03:59;;;;;;;;;2.00;0.67;;;;;;;;5009216;27;50950;-56
2022/10/07 12:06:24;;;;;;;;;2.00;2.00;;;;;;;;5007059;28;51098;-56
2022/10/07 12:08:50;;;;;;;;;1.00;0.67;;;;;;;;5009683;28;51358;-54
2022/10/07 12:11:22;;;;;;;;;5.00;3.00;;;;;;;;5002015;28;51143;-55
2022/10/07 12:13:49;;;;;;;;;1.33;1.33;;;;;;;;5008828;27;51130;-54
2022/10/07 12:16:26;;;;;;;;;4.00;4.00;;;;;;;;5048303;27;51109;-53
2022/10/07 12:19:21;;;;;;;;;1.00;1.00;;;;;;;;5011987;27;51436;-57
2022/10/07 12:21:59;;;;;;;;;3.00;2.00;;;;;;;;5013245;28;51998;-54
2022/10/07 12:24:25;;;;;;;;;2.67;1.33;;;;;;;;5009349;28;51031;-54
2022/10/07 12:26:50;;;;;;;;;6.00;6.00;;;;;;;;5008977;28;51084;-57
2022/10/07 12:29:18;;;;;;;;;6.00;4.33;;;;;;;;5008350;28;51129;-55
2022/10/07 12:31:45;;;;;;;;;3.33;3.00;;;;;;;;5008562;28;51097;-50
2022/10/07 12:34:18;;;;;;;;;3.00;3.00;;;;;;;;5009150;28;51207;-54
2022/10/07 12:36:43;;;;;;;;;4.33;3.00;;;;;;;;5009248;28;51005;-55
2022/10/07 12:39:08;;;;;;;;;9.00;8.00;;;;;;;;5009732;28;51064;-54
2022/10/07 12:41:44;;;;;;;;;4.00;4.00;;;;;;;;5007499;28;53495;-57
2022/10/07 12:44:29;;;;;;;;;15.50;15.00;;;;;;;;5009269;28;51063;-56
2022/10/07 12:46:56;;;;;;;;;4.00;4.00;;;;;;;;5008118;28;51123;-56
2022/10/07 12:49:24;;;;;;;;;5.33;5.00;;;;;;;;5006094;27;51328;-55
2022/10/07 12:51:52;;;;;;;;;3.00;3.00;;;;;;;;5007604;28;51757;-54
2022/10/07 12:54:19;;;;;;;;;4.33;4.00;;;;;;;;5007328;28;51143;-54
2022/10/07 12:56:45;;;;;;;;;8.00;8.00;;;;;;;;5007519;27;50980;-53
2022/10/07 13:02:10;;;;;;;;;1.33;1.33;;;;;;;;5017831;27;51429;-54
2022/10/07 13:05:09;;;;;;;;;3.67;3.00;;;;;;;;5008377;28;51084;-55
2022/10/07 13:07:53;;;;;;;;;3.00;3.00;;;;;;;;5008387;28;51001;-55
2022/10/07 13:10:33;;;;;;;;;4.67;4.67;;;;;;;;5009870;28;51481;-53
2022/10/07 13:13:04;;;;;;;;;5.67;4.67;;;;;;;;5011360;28;51967;-53
2022/10/07 13:15:44;;;;;;;;;3.00;3.00;;;;;;;;5018468;27;50987;-55
2022/10/07 13:18:12;;;;;;;;;4.00;4.00;;;;;;;;5035987;27;51226;-54
2022/10/07 13:20:56;;;;;;;;;4.67;3.00;;;;;;;;5012069;27;50971;-56
2022/10/07 13:23:22;;;;;;;;;4.00;4.00;;;;;;;;5011656;27;52012;-54
2022/10/07 13:25:54;;;;;;;;;4.00;4.00;;;;;;;;5011672;28;51059;-53
2022/10/07 13:28:21;;;;;;;;;10.00;9.00;;;;;;;;5011692;28;50924;-57
2022/10/07 13:30:46;;;;;;;;;3.00;3.00;;;;;;;;5011925;28;50882;-55
2022/10/07 13:33:20;;;;;;;;;6.00;5.00;;;;;;;;5010897;27;51874;-56
2022/10/07 13:35:46;;;;;;;;;2.00;2.00;;;;;;;;5010278;28;51174;-53
2022/10/07 13:38:25;;;;;;;;;5.67;4.00;;;;;;;;5011527;28;51120;-53
2022/10/07 13:40:54;;;;;;;;;4.00;3.33;;;;;;;;5011399;28;51273;-58
2022/10/07 13:43:20;;;;;;;;;4.00;3.00;;;;;;;;5011119;27;51858;-53
2022/10/07 13:45:48;;;;;;;;;4.00;4.00;;;;;;;;5011508;28;51093;-54
2022/10/07 13:48:15;;;;;;;;;4.00;3.00;;;;;;;;5010084;28;51080;-54
2022/10/07 13:50:40;;;;;;;;;4.00;3.67;;;;;;;;5011126;28;51034;-57
2022/10/07 13:53:05;;;;;;;;;3.00;3.00;;;;;;;;5011553;28;51876;-57
2022/10/07 13:55:31;;;;;;;;;12.00;11.00;;;;;;;;5011193;28;51028;-57
2022/10/07 13:57:59;;;;;;;;;5.67;5.00;;;;;;;;5011670;28;50877;-55
2022/10/07 14:00:25;;;;;;;;;3.00;3.00;;;;;;;;5024525;27;50904;-53
2022/10/07 14:02:51;;;;;;;;;3.67;3.67;;;;;;;;5062349;27;51112;-56
2022/10/07 14:05:19;;;;;;;;;6.00;6.00;;;;;;;;4999720;28;51010;-54
2022/10/07 14:07:44;;;;;;;;;4.00;3.00;;;;;;;;5007871;28;51125;-54
2022/10/07 14:10:11;;;;;;;;;3.00;3.00;;;;;;;;5010879;27;51078;-55
2022/10/07 14:12:41;;;;;;;;;3.33;3.00;;;;;;;;5010404;28;50920;-56
2022/10/07 14:15:12;;;;;;;;;3.00;1.33;;;;;;;;5010902;27;51035;-56
2022/10/07 14:17:37;;;;;;;;;2.33;2.00;;;;;;;;5015599;27;50927;-53
2022/10/07 14:20:04;;;;;;;;;2.00;2.00;;;;;;;;5010557;27;51228;-54
2022/10/07 14:22:32;;;;;;;;;1.00;1.00;;;;;;;;5009847;28;52345;-55
2022/10/07 14:25:00;;;;;;;;;4.33;3.33;;;;;;;;5010869;28;50892;-54
2022/10/07 14:27:51;;;;;;;;;1.00;1.00;;;;;;;;5010813;28;51160;-54
2022/10/07 14:36:17;;;;;;;;;5.00;3.00;;;;;;;;5010399;28;51031;-55
2022/10/07 14:38:45;;;;;;;;;4.00;3.00;;;;;;;;5004779;28;51245;-54
2022/10/07 14:41:11;;;;;;;;;2.33;1.67;;;;;;;;5010696;28;51496;-56
2022/10/07 14:43:37;;;;;;;;;2.00;2.00;;;;;;;;5010425;28;51111;-57
2022/10/07 14:46:19;;;;;;;;;2.00;2.00;;;;;;;;5010594;27;51079;-52